Time;durP1;ratioP1;P1;durP2;ratioP2;P2;SDS_P1;SDS_P2;PMS_P1;PMS_P2;Temp;Humidity;BMP_temperature;BMP_pressure;BME280_temperature;BME280_humidity;BME280_pressure;Samples;Min_cycle;Max_cycle;Signal;HPM_P1;HPM_P2
2023/05/21 00:02:22;;;;;;;5.00;3.85;;;13.90;99.90;;;;;;5069083;28;20092;-86
2023/05/21 00:04:47;;;;;;;5.55;3.47;;;14.00;99.90;;;;;;5068578;28;20033;-85
2023/05/21 00:07:14;;;;;;;4.22;3.83;;;14.20;99.90;;;;;;5069248;28;20075;-86
2023/05/21 00:09:40;;;;;;;4.82;4.18;;;13.90;99.90;;;;;;5068399;28;20055;-85
2023/05/21 00:12:07;;;;;;;5.60;3.88;;;14.00;99.90;;;;;;5068490;28;20414;-85
2023/05/21 00:14:33;;;;;;;4.38;3.97;;;14.10;99.90;;;;;;5068203;28;20048;-85
2023/05/21 00:16:59;;;;;;;6.85;4.13;;;13.90;99.90;;;;;;5068684;28;20132;-85
2023/05/21 00:19:25;;;;;;;5.03;3.75;;;14.00;99.90;;;;;;5068401;28;20240;-85
2023/05/21 00:21:52;;;;;;;4.22;3.83;;;13.90;99.90;;;;;;5068527;28;20086;-85
2023/05/21 00:24:18;;;;;;;4.93;4.05;;;13.90;99.90;;;;;;5068708;28;20101;-85
2023/05/21 00:26:43;;;;;;;5.03;4.53;;;14.00;99.90;;;;;;5051982;28;20475;-85
2023/05/21 00:29:09;;;;;;;4.97;3.85;;;13.90;99.90;;;;;;5068421;28;20097;-85
2023/05/21 00:31:35;;;;;;;4.18;3.78;;;14.20;99.90;;;;;;5051269;28;20071;-85
2023/05/21 00:34:00;;;;;;;4.85;4.35;;;13.90;99.90;;;;;;5058228;28;20196;-85
2023/05/21 00:36:26;;;;;;;5.97;4.20;;;13.90;99.90;;;;;;5069333;28;20080;-85
2023/05/21 00:38:52;;;;;;;5.22;4.40;;;13.90;99.90;;;;;;5068005;28;20566;-85
2023/05/21 00:41:18;;;;;;;4.80;3.83;;;13.90;99.90;;;;;;5069192;28;20052;-85
2023/05/21 00:43:44;;;;;;;4.82;4.43;;;13.90;99.90;;;;;;5067205;28;20074;-85
2023/05/21 00:46:15;;;;;;;4.57;4.18;;;14.20;99.90;;;;;;5068723;28;20036;-86
2023/05/21 00:48:45;;;;;;;5.70;4.38;;;14.10;99.90;;;;;;5066819;28;20426;-85
2023/05/21 00:51:15;;;;;;;6.07;4.57;;;13.80;99.90;;;;;;5068398;28;20169;-84
2023/05/21 00:53:41;;;;;;;4.45;4.05;;;13.80;99.90;;;;;;5069136;28;20505;-85
2023/05/21 00:56:07;;;;;;;5.00;4.10;;;13.80;99.90;;;;;;5069058;28;20049;-85
2023/05/21 00:58:34;;;;;;;4.65;3.88;;;14.10;99.90;;;;;;5066784;28;20048;-84
2023/05/21 01:01:05;;;;;;;5.18;4.28;;;13.90;99.90;;;;;;5066490;28;20559;-85
2023/05/21 01:03:37;;;;;;;4.45;3.80;;;13.90;99.90;;;;;;5067325;28;20502;-84
2023/05/21 01:06:07;;;;;;;4.93;4.05;;;13.90;99.90;;;;;;5066202;28;20067;-85
2023/05/21 01:08:35;;;;;;;4.30;3.90;;;13.90;99.90;;;;;;5066688;28;20040;-85
2023/05/21 01:11:02;;;;;;;6.97;4.10;;;13.90;99.90;;;;;;5067014;28;20049;-86
2023/05/21 01:13:29;;;;;;;7.00;4.40;;;14.10;99.90;;;;;;5067708;28;20045;-85
2023/05/21 01:15:56;;;;;;;5.55;4.13;;;13.80;99.90;;;;;;5050137;28;20036;-85
2023/05/21 01:18:22;;;;;;;5.03;3.95;;;13.80;99.90;;;;;;5068970;28;20070;-85
2023/05/21 01:20:49;;;;;;;5.90;4.10;;;13.70;99.90;;;;;;5066933;28;20040;-85
2023/05/21 01:23:18;;;;;;;6.82;4.22;;;13.80;99.90;;;;;;5065615;28;20114;-85
2023/05/21 01:25:45;;;;;;;6.85;4.30;;;13.80;99.90;;;;;;5066943;28;20437;-85
2023/05/21 01:28:11;;;;;;;4.43;3.75;;;13.80;99.90;;;;;;5050658;28;20458;-85
2023/05/21 01:30:39;;;;;;;4.85;4.10;;;13.80;99.90;;;;;;5068170;28;20052;-84
2023/05/21 01:33:11;;;;;;;4.80;3.92;;;13.80;99.90;;;;;;5066977;28;20174;-85
2023/05/21 01:35:49;;;;;;;5.68;3.88;;;13.80;99.90;;;;;;5049021;28;20048;-84
2023/05/21 01:38:41;;;;;;;5.15;4.13;;;13.80;99.90;;;;;;5067088;28;20148;-85
2023/05/21 01:41:10;;;;;;;5.88;3.70;;;13.80;99.90;;;;;;5067126;28;20461;-85
2023/05/21 01:43:38;;;;;;;6.53;3.80;;;14.00;99.90;;;;;;5067363;28;20051;-85
2023/05/21 01:46:08;;;;;;;4.20;3.65;;;13.80;99.90;;;;;;5067066;28;20563;-85
2023/05/21 01:48:35;;;;;;;4.70;3.97;;;13.80;99.90;;;;;;5069113;28;20098;-84
2023/05/21 01:51:05;;;;;;;4.30;3.85;;;13.80;99.90;;;;;;5071064;28;20049;-85
2023/05/21 01:53:31;;;;;;;5.60;4.00;;;13.80;99.90;;;;;;5070698;28;20037;-85
2023/05/21 01:55:58;;;;;;;6.72;4.60;;;13.80;99.90;;;;;;5050486;28;20402;-84
2023/05/21 01:58:23;;;;;;;5.97;4.60;;;13.80;99.90;;;;;;5070137;28;20052;-85
2023/05/21 02:00:52;;;;;;;5.28;4.40;;;13.80;99.90;;;;;;5070618;28;20055;-85
2023/05/21 02:03:19;;;;;;;6.70;4.18;;;14.00;99.90;;;;;;5052813;28;20078;-85
2023/05/21 02:05:45;;;;;;;5.28;4.18;;;13.80;99.90;;;;;;5070035;28;20132;-84
2023/05/21 02:08:13;;;;;;;5.22;4.47;;;13.80;99.90;;;;;;5052810;28;20087;-85
2023/05/21 02:10:39;;;;;;;6.15;4.65;;;13.80;99.90;;;;;;5068543;28;20045;-85
2023/05/21 02:13:05;;;;;;;5.53;4.43;;;13.80;99.90;;;;;;5069909;28;20058;-86
2023/05/21 02:15:33;;;;;;;5.25;3.80;;;13.80;99.90;;;;;;5070198;28;20033;-85
2023/05/21 02:17:58;;;;;;;6.13;4.65;;;13.80;99.90;;;;;;5069477;28;20048;-85
2023/05/21 02:20:24;;;;;;;6.00;4.72;;;13.70;99.90;;;;;;5069929;28;20051;-85
2023/05/21 02:22:50;;;;;;;6.78;4.95;;;14.10;99.90;;;;;;5068861;28;20045;-85
2023/05/21 02:25:17;;;;;;;6.65;4.32;;;14.00;99.90;;;;;;5069110;28;20484;-85
2023/05/21 02:27:43;;;;;;;5.30;4.40;;;13.70;99.90;;;;;;5051928;28;20477;-85
2023/05/21 02:30:10;;;;;;;5.97;4.90;;;13.70;99.90;;;;;;5068848;28;20060;-85
2023/05/21 02:32:38;;;;;;;5.50;4.60;;;13.70;99.90;;;;;;5069757;28;20041;-85
2023/05/21 02:35:04;;;;;;;5.97;4.57;;;13.70;99.90;;;;;;5068426;28;20814;-85
2023/05/21 02:37:33;;;;;;;8.25;4.97;;;13.70;99.90;;;;;;5071371;28;20048;-85
2023/05/21 02:40:00;;;;;;;7.43;4.80;;;13.70;99.90;;;;;;5069031;28;20036;-85
2023/05/21 02:42:25;;;;;;;5.45;4.75;;;13.70;99.90;;;;;;5069030;28;20533;-85
2023/05/21 02:44:51;;;;;;;5.40;4.47;;;13.70;99.90;;;;;;5068782;28;20042;-86
2023/05/21 02:47:18;;;;;;;6.05;5.15;;;13.80;99.90;;;;;;5068803;28;20059;-85
2023/05/21 02:49:44;;;;;;;5.97;4.85;;;13.70;99.90;;;;;;5067440;28;20054;-86
2023/05/21 02:52:10;;;;;;;7.65;4.80;;;13.70;99.90;;;;;;5053286;28;20414;-85
2023/05/21 02:54:35;;;;;;;6.60;5.25;;;13.70;99.90;;;;;;5068593;28;20048;-85
2023/05/21 02:57:01;;;;;;;7.45;5.47;;;13.70;99.90;;;;;;5063490;28;20040;-84
2023/05/21 02:59:27;;;;;;;7.18;5.45;;;13.70;99.90;;;;;;5053546;28;20053;-85
2023/05/21 03:01:52;;;;;;;7.38;5.60;;;13.60;99.90;;;;;;5068799;28;20644;-85
2023/05/21 03:04:20;;;;;;;8.77;5.35;;;13.60;99.90;;;;;;5068890;28;20048;-85
2023/05/21 03:06:47;;;;;;;7.25;4.88;;;13.70;99.90;;;;;;5068234;28;20063;-85
2023/05/21 03:09:13;;;;;;;5.28;4.78;;;13.60;99.90;;;;;;5047859;28;20101;-85
2023/05/21 03:11:42;;;;;;;10.68;5.50;;;13.60;99.90;;;;;;5067893;28;20648;-84
2023/05/21 03:14:08;;;;;;;7.95;5.10;;;13.70;99.90;;;;;;5067894;28;20123;-84
2023/05/21 03:16:34;;;;;;;8.02;5.40;;;13.60;99.90;;;;;;5068775;28;20052;-84
2023/05/21 03:19:00;;;;;;;8.43;5.13;;;13.60;99.90;;;;;;5068055;28;20045;-85
2023/05/21 03:21:28;;;;;;;7.57;5.50;;;13.60;99.90;;;;;;5068762;28;20044;-84
2023/05/21 03:23:57;;;;;;;8.23;5.05;;;13.60;99.90;;;;;;5068122;28;20442;-85
2023/05/21 03:26:26;;;;;;;6.72;5.47;;;13.70;99.90;;;;;;5068701;28;20052;-84
2023/05/21 03:28:52;;;;;;;8.38;5.38;;;13.60;99.90;;;;;;5067861;28;20047;-85
2023/05/21 03:31:18;;;;;;;6.65;5.32;;;13.60;99.90;;;;;;5050967;28;20040;-85
2023/05/21 03:33:43;;;;;;;5.88;4.47;;;13.60;99.90;;;;;;5051644;28;20411;-84
2023/05/21 03:36:09;;;;;;;9.57;5.25;;;13.60;99.90;;;;;;5067836;28;20415;-84
2023/05/21 03:38:34;;;;;;;8.07;5.68;;;13.60;99.90;;;;;;5067277;28;20052;-85
2023/05/21 03:41:00;;;;;;;9.82;5.60;;;13.60;99.90;;;;;;5068459;28;20075;-84
2023/05/21 03:43:26;;;;;;;6.35;5.32;;;13.60;99.90;;;;;;5068122;28;20045;-85
2023/05/21 03:45:53;;;;;;;5.38;4.88;;;13.60;99.90;;;;;;5068044;28;20055;-84
2023/05/21 03:48:19;;;;;;;6.93;5.50;;;13.60;99.90;;;;;;5085110;28;20094;-83
2023/05/21 03:50:44;;;;;;;6.50;5.05;;;13.60;99.90;;;;;;5071924;28;20075;-84
2023/05/21 03:53:11;;;;;;;7.35;4.40;;;13.60;99.90;;;;;;5070247;28;20036;-84
2023/05/21 03:55:37;;;;;;;7.72;5.45;;;13.60;99.90;;;;;;5071651;28;20759;-85
2023/05/21 03:58:02;;;;;;;10.07;4.85;;;13.60;99.90;;;;;;5071566;28;20040;-85
2023/05/21 04:00:28;;;;;;;6.78;5.20;;;13.60;99.90;;;;;;5054496;28;20320;-85
2023/05/21 04:02:53;;;;;;;7.30;4.78;;;13.60;99.90;;;;;;5070258;28;20094;-85
2023/05/21 04:05:19;;;;;;;5.15;4.47;;;13.60;99.90;;;;;;5071372;28;20101;-85
2023/05/21 04:07:48;;;;;;;7.00;5.28;;;13.60;99.90;;;;;;5053822;28;20044;-84
2023/05/21 04:10:14;;;;;;;8.20;5.35;;;13.60;99.90;;;;;;5088277;28;20040;-85
2023/05/21 04:12:40;;;;;;;6.63;4.78;;;13.60;99.90;;;;;;5088859;28;20040;-85
2023/05/21 04:15:06;;;;;;;7.88;5.50;;;13.60;99.90;;;;;;5054401;28;20524;-85
2023/05/21 04:17:33;;;;;;;8.88;5.18;;;13.60;99.90;;;;;;5071038;28;20054;-85
2023/05/21 04:19:59;;;;;;;7.63;5.00;;;13.60;99.90;;;;;;5070677;28;20453;-85
2023/05/21 04:22:25;;;;;;;6.80;4.72;;;13.60;99.90;;;;;;5054142;28;20040;-86
2023/05/21 04:24:53;;;;;;;6.00;4.63;;;13.90;99.90;;;;;;5069943;28;20044;-85
2023/05/21 04:27:22;;;;;;;8.13;4.95;;;13.50;99.90;;;;;;5070601;28;20502;-85
2023/05/21 04:29:48;;;;;;;8.20;5.25;;;13.70;99.90;;;;;;5070372;28;20050;-85
2023/05/21 04:32:16;;;;;;;5.47;4.70;;;14.00;99.90;;;;;;5088851;28;20070;-85
2023/05/21 04:34:42;;;;;;;5.55;4.60;;;13.70;99.90;;;;;;5068707;28;20481;-85
2023/05/21 04:37:08;;;;;;;8.02;4.95;;;13.80;99.90;;;;;;5088478;28;20048;-85
2023/05/21 04:39:35;;;;;;;5.97;4.97;;;13.80;99.90;;;;;;5053295;28;20407;-85
2023/05/21 04:42:02;;;;;;;8.27;5.03;;;13.80;99.90;;;;;;5069498;28;20082;-85
2023/05/21 04:44:28;;;;;;;5.60;4.72;;;13.80;99.90;;;;;;5069642;28;20044;-85
2023/05/21 04:46:53;;;;;;;7.90;4.70;;;13.80;99.90;;;;;;5053518;28;20623;-85
2023/05/21 04:49:22;;;;;;;5.35;4.57;;;13.80;99.90;;;;;;5052292;28;20073;-85
2023/05/21 04:51:50;;;;;;;7.78;4.38;;;13.80;99.90;;;;;;5069831;28;20048;-85
2023/05/21 04:54:16;;;;;;;7.93;4.68;;;13.90;99.90;;;;;;5069952;28;20048;-85
2023/05/21 04:56:42;;;;;;;5.68;4.55;;;13.90;99.90;;;;;;5069736;28;20051;-85
2023/05/21 04:59:08;;;;;;;6.78;4.80;;;13.90;99.90;;;;;;5068565;28;20044;-85
2023/05/21 05:01:34;;;;;;;6.72;4.90;;;13.90;99.90;;;;;;5069146;28;20410;-85
2023/05/21 05:04:00;;;;;;;9.38;4.65;;;14.10;99.90;;;;;;5070048;28;20043;-85
2023/05/21 05:06:25;;;;;;;8.38;5.05;;;14.00;99.90;;;;;;5068480;28;20500;-85
2023/05/21 05:08:51;;;;;;;6.60;4.63;;;14.00;99.90;;;;;;5052933;28;20136;-85
2023/05/21 05:11:17;;;;;;;8.18;4.60;;;14.10;99.90;;;;;;5070633;28;20048;-86
2023/05/21 05:13:43;;;;;;;5.72;4.57;;;14.20;99.90;;;;;;5053285;28;20136;-84
2023/05/21 05:16:08;;;;;;;5.97;4.43;;;14.20;99.90;;;;;;5053380;28;20046;-85
2023/05/21 05:18:35;;;;;;;8.45;4.50;;;14.20;99.90;;;;;;5070211;28;20036;-85
2023/05/21 05:21:01;;;;;;;5.85;4.40;;;14.30;99.90;;;;;;5052253;28;20127;-85
2023/05/21 05:23:26;;;;;;;5.50;4.22;;;14.40;99.90;;;;;;5069356;28;20044;-86
2023/05/21 05:25:52;;;;;;;4.85;4.05;;;14.40;99.90;;;;;;5069132;28;20076;-85
2023/05/21 05:28:17;;;;;;;6.80;4.32;;;14.40;99.90;;;;;;5084780;28;20043;-85
2023/05/21 05:30:44;;;;;;;7.28;4.32;;;14.40;99.90;;;;;;5068052;28;20113;-85
2023/05/21 05:33:10;;;;;;;5.40;4.47;;;14.50;99.90;;;;;;5064334;28;20434;-83
2023/05/21 05:35:36;;;;;;;4.53;3.95;;;14.50;99.90;;;;;;5048199;28;20508;-83
2023/05/21 05:38:02;;;;;;;7.35;4.57;;;14.60;99.90;;;;;;5051637;28;20054;-84
2023/05/21 05:40:27;;;;;;;7.32;3.95;;;14.60;99.90;;;;;;5069390;28;20062;-83
2023/05/21 05:42:53;;;;;;;6.80;4.15;;;14.70;99.90;;;;;;5065178;28;20398;-85
2023/05/21 05:45:19;;;;;;;6.00;4.15;;;14.70;99.90;;;;;;5069440;28;20041;-84
2023/05/21 05:47:45;;;;;;;5.28;4.20;;;14.80;99.90;;;;;;5069328;28;20432;-84
2023/05/21 05:50:11;;;;;;;6.80;4.85;;;14.80;99.90;;;;;;5069690;28;20155;-84
2023/05/21 05:53:02;;;;;;;8.23;4.38;;;14.70;99.90;;;;;;5069784;28;20047;-85
2023/05/21 05:55:28;;;;;;;5.45;3.97;;;14.50;99.90;;;;;;5066697;28;20055;-85
2023/05/21 05:57:54;;;;;;;5.80;4.20;;;14.70;99.90;;;;;;5037090;28;20135;-84
2023/05/21 06:00:20;;;;;;;6.53;4.85;;;14.70;99.90;;;;;;5069900;28;20032;-86
2023/05/21 06:02:46;;;;;;;5.00;3.97;;;14.80;99.90;;;;;;5052238;28;20050;-87
2023/05/21 06:05:12;;;;;;;5.35;4.00;;;14.80;99.90;;;;;;5067787;28;20101;-87
2023/05/21 06:07:39;;;;;;;5.30;3.83;;;14.90;99.90;;;;;;5069045;28;20043;-87
2023/05/21 06:10:06;;;;;;;5.40;3.95;;;15.00;99.90;;;;;;5068887;28;20044;-87
2023/05/21 06:12:32;;;;;;;6.10;3.90;;;15.00;99.90;;;;;;5069573;28;20781;-85
2023/05/21 06:14:58;;;;;;;5.22;3.80;;;15.00;99.90;;;;;;5087365;28;20044;-84
2023/05/21 06:17:25;;;;;;;4.35;3.65;;;15.00;99.90;;;;;;5084707;28;20746;-84
2023/05/21 06:19:50;;;;;;;7.47;4.53;;;15.00;99.90;;;;;;5086367;28;20040;-84
2023/05/21 06:22:16;;;;;;;4.07;3.63;;;15.10;99.90;;;;;;5068844;28;20074;-85
2023/05/21 06:24:41;;;;;;;5.13;3.90;;;15.20;99.90;;;;;;5068475;28;20131;-84
2023/05/21 06:27:07;;;;;;;7.70;4.45;;;15.30;99.90;;;;;;5069171;28;20066;-86
2023/05/21 06:29:33;;;;;;;6.93;4.25;;;15.30;99.90;;;;;;5067573;28;20040;-85
2023/05/21 06:31:58;;;;;;;7.25;4.30;;;15.60;99.90;;;;;;5068711;28;20119;-84
2023/05/21 06:34:24;;;;;;;8.95;4.78;;;15.50;99.90;;;;;;5069491;28;20093;-85
2023/05/21 06:36:50;;;;;;;4.78;3.75;;;15.70;99.90;;;;;;5087482;28;20501;-85
2023/05/21 06:39:16;;;;;;;6.57;4.15;;;15.80;99.90;;;;;;5088292;28;20078;-83
2023/05/21 06:41:41;;;;;;;5.70;4.13;;;15.90;99.90;;;;;;5071640;28;20050;-85
2023/05/21 06:44:07;;;;;;;8.07;3.75;;;16.00;99.90;;;;;;5072440;28;20055;-85
2023/05/21 06:46:33;;;;;;;5.38;3.65;;;16.10;99.90;;;;;;5072512;28;20456;-85
2023/05/21 06:49:00;;;;;;;5.22;3.70;;;16.10;99.90;;;;;;5072453;28;20832;-85
2023/05/21 06:51:25;;;;;;;6.15;4.10;;;16.20;99.90;;;;;;5071719;28;20058;-84
2023/05/21 06:53:51;;;;;;;5.57;3.88;;;16.20;99.90;;;;;;5071784;28;20044;-85
2023/05/21 06:56:18;;;;;;;4.40;3.97;;;16.20;99.90;;;;;;5071876;28;20054;-85
2023/05/21 06:58:44;;;;;;;6.00;3.42;;;16.30;99.90;;;;;;5072734;28;20150;-85
2023/05/21 07:01:10;;;;;;;6.88;4.05;;;16.30;99.90;;;;;;5072133;28;20105;-85
2023/05/21 07:03:36;;;;;;;6.45;3.72;;;16.30;99.90;;;;;;5072527;28;20101;-85
2023/05/21 07:06:01;;;;;;;5.90;3.63;;;16.40;99.90;;;;;;5090523;28;20040;-85
2023/05/21 07:08:27;;;;;;;6.07;3.60;;;16.50;99.90;;;;;;5071409;28;20433;-85
2023/05/21 07:10:53;;;;;;;9.00;3.65;;;16.50;99.90;;;;;;5072225;28;20032;-85
2023/05/21 07:13:18;;;;;;;5.18;3.22;;;16.50;99.90;;;;;;5072262;28;20146;-85
2023/05/21 07:15:44;;;;;;;7.05;3.15;;;16.60;99.90;;;;;;5091099;28;20051;-85
2023/05/21 07:18:10;;;;;;;6.90;3.60;;;16.70;99.90;;;;;;5071726;28;20058;-86
2023/05/21 07:20:36;;;;;;;6.30;4.07;;;16.80;99.90;;;;;;5072062;28;20040;-85
2023/05/21 07:23:01;;;;;;;5.53;3.47;;;16.50;99.90;;;;;;5072729;28;20040;-86
2023/05/21 07:25:27;;;;;;;5.05;3.78;;;16.90;99.90;;;;;;5072112;28;20040;-84
2023/05/21 07:27:52;;;;;;;8.02;3.67;;;17.00;99.90;;;;;;5089048;28;20055;-84
2023/05/21 07:30:19;;;;;;;6.40;3.38;;;17.10;99.90;;;;;;5070907;28;20036;-84
2023/05/21 07:32:45;;;;;;;5.55;3.58;;;17.20;99.90;;;;;;5071555;28;20489;-84
2023/05/21 07:35:10;;;;;;;5.95;3.75;;;17.20;99.90;;;;;;5089968;28;20040;-84
2023/05/21 07:37:36;;;;;;;5.88;3.67;;;17.30;99.90;;;;;;5070930;28;20090;-84
2023/05/21 07:40:02;;;;;;;5.43;3.63;;;17.30;99.90;;;;;;5087834;28;20127;-84
2023/05/21 07:42:28;;;;;;;6.22;3.85;;;17.40;99.90;;;;;;5071594;28;20044;-85
2023/05/21 07:44:54;;;;;;;5.18;3.70;;;17.50;99.90;;;;;;5070954;28;20047;-84
2023/05/21 07:47:20;;;;;;;5.18;3.90;;;17.60;99.90;;;;;;5068123;28;20121;-84
2023/05/21 07:49:45;;;;;;;5.72;4.00;;;17.60;99.90;;;;;;5069173;28;20545;-84
2023/05/21 07:52:11;;;;;;;6.28;3.58;;;17.70;99.90;;;;;;5069295;28;20054;-84
2023/05/21 07:54:36;;;;;;;8.10;4.75;;;17.60;99.90;;;;;;5052699;28;20622;-84
2023/05/21 07:57:02;;;;;;;5.40;4.80;;;17.80;99.90;;;;;;5052747;28;20052;-85
2023/05/21 07:59:39;;;;;;;6.07;4.63;;;18.00;99.90;;;;;;5087426;28;20036;-85
2023/05/21 08:02:05;;;;;;;7.03;4.75;;;18.10;99.90;;;;;;5069782;28;20055;-84
2023/05/21 08:04:30;;;;;;;7.65;4.60;;;18.40;99.90;;;;;;5070467;28;20040;-85
2023/05/21 08:06:56;;;;;;;6.20;4.10;;;18.20;99.90;;;;;;5071580;28;20044;-85
2023/05/21 08:09:21;;;;;;;8.45;4.93;;;18.20;99.90;;;;;;5070683;28;20079;-85
2023/05/21 08:11:47;;;;;;;5.28;4.05;;;18.30;99.90;;;;;;5071093;28;20044;-82
2023/05/21 08:14:13;;;;;;;5.05;3.72;;;18.30;99.90;;;;;;5070676;28;20044;-83
2023/05/21 08:16:38;;;;;;;6.75;3.92;;;18.30;99.90;;;;;;5070684;28;20044;-85
2023/05/21 08:19:06;;;;;;;6.13;4.07;;;18.20;99.90;;;;;;5070298;28;20043;-84
2023/05/21 08:21:32;;;;;;;6.93;3.78;;;18.40;99.90;;;;;;5087595;28;20102;-85
2023/05/21 08:23:59;;;;;;;8.88;4.10;;;18.10;99.90;;;;;;5053626;28;20046;-85
2023/05/21 08:26:25;;;;;;;5.07;3.00;;;18.20;99.90;;;;;;5071667;28;20131;-85
2023/05/21 08:28:51;;;;;;;5.40;3.70;;;18.20;99.90;;;;;;5068978;28;20080;-85
2023/05/21 08:31:22;;;;;;;6.90;3.78;;;18.20;99.90;;;;;;5067180;28;20095;-83
2023/05/21 08:33:55;;;;;;;5.33;3.53;;;18.20;99.90;;;;;;5067122;28;20048;-85
2023/05/21 08:36:23;;;;;;;5.03;2.95;;;18.00;99.90;;;;;;5071711;28;20126;-85
2023/05/21 08:38:48;;;;;;;4.32;3.50;;;18.10;99.90;;;;;;5069832;28;20039;-84
2023/05/21 08:41:17;;;;;;;5.78;3.70;;;17.80;99.90;;;;;;5069841;28;20338;-84
2023/05/21 08:43:44;;;;;;;6.68;3.83;;;18.10;99.90;;;;;;5088504;28;20044;-82
2023/05/21 08:46:10;;;;;;;6.18;4.10;;;18.20;99.90;;;;;;5070708;28;20448;-84
2023/05/21 08:48:37;;;;;;;4.53;3.58;;;18.10;99.90;;;;;;5060618;28;20044;-84
2023/05/21 08:51:03;;;;;;;5.25;3.90;;;18.10;99.90;;;;;;5055813;28;20121;-83
2023/05/21 08:53:33;;;;;;;7.05;3.92;;;18.10;99.90;;;;;;5058273;28;20040;-84
2023/05/21 08:56:00;;;;;;;7.50;3.90;;;18.10;99.90;;;;;;5069511;28;20511;-84
2023/05/21 08:58:26;;;;;;;5.47;3.70;;;18.20;99.90;;;;;;5068319;28;20044;-86
2023/05/21 09:00:52;;;;;;;5.03;3.55;;;18.30;99.90;;;;;;5079084;28;20409;-85
2023/05/21 09:03:21;;;;;;;4.03;3.40;;;18.40;99.90;;;;;;5108370;28;20051;-83
2023/05/21 09:05:47;;;;;;;4.82;3.58;;;18.60;99.90;;;;;;5054179;28;20051;-84
2023/05/21 09:08:18;;;;;;;4.63;3.70;;;18.70;99.90;;;;;;5069737;28;20047;-84
2023/05/21 09:10:51;;;;;;;5.72;4.18;;;18.90;99.90;;;;;;5066947;28;20402;-82
2023/05/21 09:13:17;;;;;;;4.22;3.45;;;18.90;99.90;;;;;;5067677;28;20048;-84
2023/05/21 09:15:44;;;;;;;7.43;3.42;;;19.10;99.90;;;;;;5064991;28;20045;-84
2023/05/21 09:18:11;;;;;;;5.47;3.72;;;19.20;99.90;;;;;;5067435;28;20488;-85
2023/05/21 09:20:37;;;;;;;3.35;3.05;;;19.40;99.90;;;;;;5068326;28;20129;-85
2023/05/21 09:23:05;;;;;;;4.75;3.50;;;19.50;99.90;;;;;;5066226;28;20079;-85
2023/05/21 09:25:31;;;;;;;5.75;3.63;;;19.60;99.90;;;;;;5067276;28;20062;-85
2023/05/21 09:27:57;;;;;;;4.72;3.78;;;19.80;99.90;;;;;;5085150;28;20101;-85
2023/05/21 09:30:26;;;;;;;5.47;4.03;;;19.90;99.30;;;;;;5067775;28;20064;-85
2023/05/21 09:32:55;;;;;;;5.53;3.80;;;20.00;98.60;;;;;;5087860;28;21018;-84
2023/05/21 09:35:20;;;;;;;4.00;3.45;;;20.00;98.20;;;;;;5080332;28;20389;-84
2023/05/21 09:37:51;;;;;;;4.70;3.95;;;20.10;97.80;;;;;;5073964;28;20033;-86
2023/05/21 09:40:18;;;;;;;6.10;3.92;;;20.20;97.70;;;;;;5084759;28;20048;-86
2023/05/21 09:42:54;;;;;;;6.40;4.22;;;20.20;97.20;;;;;;5087285;28;20093;-84
2023/05/21 09:45:22;;;;;;;4.90;3.78;;;20.00;96.20;;;;;;5067399;28;20032;-85
2023/05/21 09:47:49;;;;;;;4.93;3.92;;;20.00;97.30;;;;;;5052835;28;20117;-85
2023/05/21 09:50:20;;;;;;;7.78;4.40;;;19.90;97.50;;;;;;5069495;28;20051;-85
2023/05/21 09:52:49;;;;;;;5.43;4.30;;;19.90;97.30;;;;;;5086226;28;20402;-84
2023/05/21 09:55:16;;;;;;;5.22;3.92;;;20.00;97.50;;;;;;5069785;28;20048;-85
2023/05/21 09:57:48;;;;;;;6.22;4.35;;;20.00;97.40;;;;;;5068939;28;20060;-84
2023/05/21 10:00:20;;;;;;;6.38;4.70;;;20.10;97.20;;;;;;5087489;28;20044;-85
2023/05/21 10:02:47;;;;;;;6.47;4.85;;;20.00;97.30;;;;;;5069042;28;20146;-86
2023/05/21 10:05:16;;;;;;;6.20;4.93;;;19.90;97.50;;;;;;5068282;28;20136;-85
2023/05/21 10:07:47;;;;;;;6.43;5.10;;;19.90;97.40;;;;;;5068867;28;20047;-85
2023/05/21 10:10:13;;;;;;;5.82;4.70;;;19.90;97.60;;;;;;5071209;28;20047;-85
2023/05/21 10:13:02;;;;;;;7.57;4.88;;;20.00;98.10;;;;;;5091329;28;20048;-84
2023/05/21 10:15:34;;;;;;;7.45;5.40;;;20.40;98.10;;;;;;5076753;28;20112;-85
2023/05/21 10:18:02;;;;;;;8.23;5.32;;;20.10;97.90;;;;;;5072092;28;20049;-85
2023/05/21 10:20:28;;;;;;;8.95;5.40;;;20.20;97.80;;;;;;5072485;28;20098;-85
2023/05/21 10:22:55;;;;;;;7.90;5.45;;;20.20;97.90;;;;;;5071500;28;20040;-84
2023/05/21 10:25:22;;;;;;;8.25;5.45;;;20.30;97.90;;;;;;5055468;28;20055;-84
2023/05/21 10:27:48;;;;;;;6.32;5.60;;;20.40;97.70;;;;;;5071978;28;20044;-85
2023/05/21 10:30:15;;;;;;;8.63;5.70;;;20.10;97.70;;;;;;5073389;28;20058;-84
2023/05/21 10:32:41;;;;;;;6.90;5.10;;;20.20;97.80;;;;;;5073006;28;20710;-84
2023/05/21 10:35:08;;;;;;;5.95;5.35;;;20.40;97.90;;;;;;5072851;28;20188;-85
2023/05/21 10:37:35;;;;;;;6.85;5.25;;;20.50;97.70;;;;;;5055592;28;20116;-85
2023/05/21 10:40:01;;;;;;;6.07;5.10;;;20.60;97.30;;;;;;5091169;28;20044;-85
2023/05/21 10:42:29;;;;;;;7.43;5.70;;;20.80;96.90;;;;;;5056042;28;20040;-84
2023/05/21 10:45:04;;;;;;;7.30;5.70;;;20.90;96.50;;;;;;5071263;28;20139;-84
2023/05/21 10:47:39;;;;;;;9.02;6.28;;;20.90;96.50;;;;;;5058450;28;20152;-83
2023/05/21 10:50:14;;;;;;;9.27;7.22;;;21.10;96.00;;;;;;5068243;28;20430;-83
2023/05/21 10:53:12;;;;;;;9.65;8.13;;;20.90;96.10;;;;;;5067867;28;20449;-83
2023/05/21 10:56:05;;;;;;;10.38;7.57;;;21.10;96.00;;;;;;5069269;28;20059;-85
2023/05/21 10:59:00;;;;;;;9.23;7.70;;;20.80;96.50;;;;;;5069087;28;20060;-83
2023/05/21 11:01:32;;;;;;;10.30;7.03;;;20.90;96.20;;;;;;5068642;28;20056;-84
2023/05/21 11:03:58;;;;;;;8.77;6.85;;;20.90;96.90;;;;;;5068550;28;20123;-83
2023/05/21 11:06:25;;;;;;;9.38;7.07;;;21.10;96.70;;;;;;5067312;28;20128;-86
2023/05/21 11:08:53;;;;;;;8.52;7.25;;;21.10;96.50;;;;;;5069335;28;20047;-86
2023/05/21 11:11:51;;;;;;;9.07;7.90;;;21.30;96.20;;;;;;5051919;28;20051;-87
2023/05/21 11:14:31;;;;;;;11.32;9.15;;;21.20;95.70;;;;;;5048594;28;20507;-85
2023/05/21 11:17:14;;;;;;;13.57;10.07;;;21.30;95.80;;;;;;5060780;28;20052;-86
2023/05/21 11:19:47;;;;;;;10.98;9.48;;;21.00;96.60;;;;;;5069946;28;20102;-84
2023/05/21 11:22:24;;;;;;;10.23;9.13;;;21.10;96.60;;;;;;5052294;28;20414;-85
2023/05/21 11:24:51;;;;;;;11.68;9.50;;;21.30;96.50;;;;;;5067533;28;20040;-85
2023/05/21 11:27:52;;;;;;;11.90;10.32;;;21.40;96.00;;;;;;5067722;28;20476;-85
2023/05/21 11:30:18;;;;;;;13.93;10.65;;;21.60;95.50;;;;;;5006681;28;20050;-84
2023/05/21 11:33:06;;;;;;;14.65;9.90;;;21.30;95.70;;;;;;5035776;28;20052;-84
2023/05/21 11:35:37;;;;;;;12.98;10.18;;;21.20;95.40;;;;;;5048176;28;20140;-84
2023/05/21 11:38:02;;;;;;;12.40;11.03;;;21.10;96.20;;;;;;5047660;28;20049;-84
2023/05/21 11:40:29;;;;;;;12.70;10.52;;;21.00;96.20;;;;;;5048658;28;20052;-86
2023/05/21 11:42:56;;;;;;;11.30;9.52;;;21.10;96.30;;;;;;5066343;28;20057;-87
2023/05/21 11:45:26;;;;;;;12.82;10.85;;;21.20;96.40;;;;;;5062951;28;20080;-87
2023/05/21 11:47:54;;;;;;;13.88;10.38;;;21.60;96.10;;;;;;5054276;28;20111;-86
2023/05/21 11:50:20;;;;;;;10.82;9.48;;;21.50;95.80;;;;;;5058394;28;20537;-86
2023/05/21 11:52:46;;;;;;;13.45;11.13;;;21.90;95.70;;;;;;5055074;28;20052;-84
2023/05/21 11:55:14;;;;;;;14.88;10.35;;;22.00;95.10;;;;;;5062527;28;20104;-84
2023/05/21 11:57:41;;;;;;;12.98;11.15;;;22.30;94.70;;;;;;5063694;28;20041;-85
2023/05/21 12:00:17;;;;;;;15.15;10.73;;;22.10;94.10;;;;;;5065417;28;20513;-86
2023/05/21 12:02:50;;;;;;;13.70;10.60;;;22.10;94.00;;;;;;5063036;28;20084;-84
2023/05/21 12:05:16;;;;;;;15.75;11.45;;;22.10;93.80;;;;;;5057108;28;20098;-86
2023/05/21 12:07:41;;;;;;;22.42;11.48;;;22.10;94.00;;;;;;5066872;28;20487;-85
2023/05/21 12:10:10;;;;;;;13.40;11.40;;;22.40;94.10;;;;;;5065277;28;20135;-85
2023/05/21 12:12:36;;;;;;;12.90;10.25;;;22.30;93.60;;;;;;5066686;28;20128;-86
2023/05/21 12:15:03;;;;;;;14.52;11.40;;;22.20;93.90;;;;;;5068662;28;20048;-84
2023/05/21 12:17:30;;;;;;;13.90;11.52;;;22.40;93.80;;;;;;5065974;28;20510;-85
2023/05/21 12:19:56;;;;;;;17.23;10.90;;;22.40;93.70;;;;;;5066283;28;20098;-85
2023/05/21 12:22:23;;;;;;;12.88;10.70;;;22.60;93.60;;;;;;5065124;28;20059;-86
2023/05/21 12:24:49;;;;;;;12.43;10.65;;;22.50;93.20;;;;;;5062536;28;20040;-85
2023/05/21 12:27:17;;;;;;;15.25;11.35;;;22.50;93.20;;;;;;5064306;28;20384;-85
2023/05/21 12:29:44;;;;;;;12.20;10.73;;;22.60;93.20;;;;;;5067362;28;20149;-85
2023/05/21 12:32:12;;;;;;;13.85;10.88;;;22.70;93.20;;;;;;5067513;28;20102;-86
2023/05/21 12:34:51;;;;;;;12.45;10.90;;;22.60;92.80;;;;;;5063497;28;20544;-85
2023/05/21 12:37:25;;;;;;;13.38;11.60;;;22.50;92.60;;;;;;5045385;28;20037;-85
2023/05/21 12:39:52;;;;;;;13.52;12.02;;;22.80;92.80;;;;;;5065578;28;20044;-85
2023/05/21 12:42:34;;;;;;;13.02;11.18;;;22.50;92.60;;;;;;5065114;28;20127;-84
2023/05/21 12:45:04;;;;;;;17.63;12.45;;;22.60;92.80;;;;;;5063369;28;20087;-84
2023/05/21 12:47:31;;;;;;;14.98;11.40;;;22.40;93.00;;;;;;5060565;28;20119;-83
2023/05/21 12:49:57;;;;;;;12.27;10.98;;;22.40;92.90;;;;;;5057521;28;20056;-85